Aviation Digital Data Service (ADDS)

Output produced by METARs form (1135 UTC 18 June 2019)
found at http://www.aviationweather.gov/metar/data/
 
Forecast for: KRDU (RALEIGH/DURHAM , NC, US)
Text: KRDU 180540Z 1806/1906 20007KT P6SM FEW050 BKN250
Forecast period: 0600 to 1300 UTC 18 June 2019
Forecast type: FROM: standard forecast or significant change
Winds: from the SSW (200 degrees) at 8 MPH (7 knots; 3.6 m/s)
Visibility: 6 or more miles 10+ km)
Ceiling: 25000 feet AGL
Clouds: few clouds at 5000 feet AGL
broken clouds at 25000 feet AGL
Weather: no significant weather forecast for this period
Text: FM181300 22010KT P6SM SCT050 BKN250
Forecast period: 1300 UTC 18 June 2019 to 0600 UTC 19 June 2019
Forecast type: FROM: standard forecast or significant change
Winds: from the SW (220 degrees) at 12 MPH (10 knots; 5.1 m/s)
Visibility: 6 or more miles 10+ km)
Ceiling: 25000 feet AGL
Clouds: scattered clouds at 5000 feet AGL
broken clouds at 25000 feet AGL
Weather: no significant weather forecast for this period